Impacts TAF Board INFO
FOR SITUATIONAL AWARENESS. NOT TO BE USED FOR FLIGHT PLANNING PURPOSES.
IDs:

KMIA - Miami Intl, FL, US

Issued at 1720 UTC 22 May 2018
Updated at 1734 UTC 22 May 2018
Potential Impact None Slight Moderate High
Time1653Z 22/18Z 22/19Z 22/20Z 22/21Z 22/22Z 22/23Z 23/00Z 23/01Z 23/02Z 23/03Z 23/04Z 23/05Z 23/06Z>>
Type OBS PRVL PRVL PRVL PRVL PRVL PRVL PRVL PRVL PRVL PRVL PRVL PRVL PRVL
VIS 10 >6 >6 >6 >6 >6 >6 >6 >6 >6 >6 >6 >6 >6
CIG 130 100 100 100 100 100 100 100 120 120 120 120 120 120
Cover OVC BKN BKN BKN BKN BKN BKN BKN BKN BKN BKN BKN BKN BKN
FltCat VFR VFR VFR VFR VFR VFR VFR VFR VFR VFR VFR VFR VFR VFR
WX -- VCSH VCSH VCSH VCSH VCSH VCSH VCSH -- -- -- -- -- --
WDir 110 110 110 110 110 110 110 110 100 100 100 100 100 100
WSpd 13 15 15 15 15 15 15 15 8 8 8 8 8 8
WGst -- -- -- -- -- -- -- -- -- -- -- -- -- --

Raw TAF
KMIA 221720Z 2218/2324 11015KT P6SM VCSH SCT025 BKN100
  FM230100 10008KT P6SM SCT030 BKN120
  FM231300 12010KT P6SM SCT035 BKN150


Raw METAR
KMIA 221653Z 11013KT 10SM SCT023 SCT110 BKN130 OVC250 27/22 A3008 RMK AO2 SLP186 T02670222
KMIA 221553Z 11012KT 10SM SCT024 BKN110 BKN140 OVC250 27/22 A3009 RMK AO2 SLP190 T02670222
KMIA 221453Z 12016KT 10SM FEW023 FEW030 BKN110 OVC250 26/22 A3010 RMK AO2 SLP191 60000 T02610222 51015

METAR Board
Radar Display
Forecast Discussion

FOR SITUATIONAL AWARENESS. NOT TO BE USED FOR FLIGHT PLANNING PURPOSES.